createdAt,value
2023-01-08T00:03:39.900Z,4.4
2023-01-08T00:08:42.346Z,4.4
2023-01-08T00:13:44.468Z,4.4
2023-01-08T00:18:46.638Z,4.6
2023-01-08T00:23:48.729Z,4.6
2023-01-08T00:28:50.953Z,4.6
2023-01-08T00:33:53.031Z,4.7
2023-01-08T00:38:55.191Z,4.6
2023-01-08T00:43:57.206Z,4.6
2023-01-08T00:48:59.294Z,4.5
2023-01-08T00:54:01.357Z,4.5
2023-01-08T00:59:03.626Z,4.5
2023-01-08T01:04:05.893Z,4.4
2023-01-08T01:09:08.162Z,4.4
2023-01-08T01:14:10.207Z,4.4
2023-01-08T01:19:13.225Z,4.3
2023-01-08T01:24:15.352Z,4.3
2023-01-08T01:29:17.421Z,4.3
2023-01-08T01:34:19.497Z,4.2
2023-01-08T01:39:21.622Z,4.2
2023-01-08T01:44:24.183Z,4.2
2023-01-08T01:49:27.575Z,4.3
2023-01-08T01:54:29.816Z,4.3
2023-01-08T01:59:31.922Z,4.3
2023-01-08T02:04:33.997Z,4.3
2023-01-08T02:09:36.214Z,4.3
2023-01-08T02:14:38.241Z,4.4
2023-01-08T02:19:40.328Z,4.4
2023-01-08T02:24:42.465Z,4.2
2023-01-08T02:29:44.676Z,4.3
2023-01-08T02:34:48.219Z,4.1
2023-01-08T02:39:50.421Z,4.1
2023-01-08T02:44:52.470Z,4.2
2023-01-08T02:49:54.615Z,4.3
2023-01-08T02:54:57.151Z,4.4
2023-01-08T02:59:59.127Z,4.4
2023-01-08T03:05:01.159Z,4.3
2023-01-08T03:10:03.379Z,4.2
2023-01-08T03:15:05.531Z,4.2
2023-01-08T03:20:07.561Z,4.2
2023-01-08T03:25:09.686Z,4.1
2023-01-08T03:30:11.930Z,4.1
2023-01-08T03:35:14.058Z,4
2023-01-08T03:40:16.687Z,3.9
2023-01-08T03:45:18.812Z,3.9
2023-01-08T03:50:20.982Z,4
2023-01-08T03:55:23.091Z,4
2023-01-08T04:00:25.144Z,4
2023-01-08T04:05:27.795Z,4
2023-01-08T04:10:30.049Z,4
2023-01-08T04:15:32.309Z,3.9
2023-01-08T04:20:35.167Z,3.5
2023-01-08T04:25:37.299Z,3.5
2023-01-08T04:30:39.550Z,3.6
2023-01-08T04:35:41.743Z,3.6
2023-01-08T04:40:43.837Z,3.7
2023-01-08T04:45:46.557Z,3.6
2023-01-08T04:50:49.698Z,3.7
2023-01-08T04:55:51.832Z,3.7
2023-01-08T05:00:53.974Z,3.7
2023-01-08T05:05:56.085Z,3.7
2023-01-08T05:10:59.425Z,3.7
2023-01-08T05:16:02.175Z,3.7
2023-01-08T05:21:04.543Z,3.6
2023-01-08T05:26:06.549Z,3.7
2023-01-08T05:31:09.147Z,3.5
2023-01-08T05:36:11.465Z,3.5
2023-01-08T05:41:13.657Z,3.4
2023-01-08T05:46:15.985Z,3.3
2023-01-08T05:51:18.279Z,3.4
2023-01-08T05:56:20.511Z,3.4
2023-01-08T06:01:23.090Z,3.6
2023-01-08T06:06:25.385Z,3.6
2023-01-08T06:11:27.658Z,3.6
2023-01-08T06:16:29.964Z,3.4
2023-01-08T06:21:32.155Z,3.3
2023-01-08T06:26:34.377Z,3.3
2023-01-08T06:31:37.039Z,3.2
2023-01-08T06:36:39.354Z,3.2
2023-01-08T06:41:41.529Z,3.2
2023-01-08T06:46:46.356Z,3.2
2023-01-08T06:51:49.730Z,3.2
2023-01-08T06:56:56.093Z,3.2
2023-01-08T07:01:59.298Z,3.2
2023-01-08T07:07:05.052Z,3.1
2023-01-08T07:12:07.763Z,3.2
2023-01-08T07:17:09.996Z,3.2
2023-01-08T07:22:12.055Z,3.2
2023-01-08T07:27:14.857Z,3.3
2023-01-08T07:32:17.041Z,3.3
2023-01-08T07:37:19.776Z,3.4
2023-01-08T07:42:22.572Z,3.5
2023-01-08T07:47:24.664Z,3.4
2023-01-08T07:52:26.819Z,3.5
2023-01-08T07:57:29.587Z,3.6
2023-01-08T08:02:32.418Z,3.7
2023-01-08T08:07:38.908Z,3.7
2023-01-08T08:12:35.749Z,3.7
2023-01-08T08:17:38.125Z,4
2023-01-08T08:22:40.806Z,7.1
2023-01-08T08:27:42.826Z,7.2
2023-01-08T08:32:45.315Z,12.2
2023-01-08T08:37:47.497Z,12.1
2023-01-08T08:42:49.758Z,13.3
2023-01-08T08:47:51.853Z,12.8
2023-01-08T08:52:54.540Z,15.7
2023-01-08T08:57:57.330Z,15.7
2023-01-08T09:03:00.000Z,15.4
2023-01-08T09:08:08.839Z,14.1
2023-01-08T09:13:22.389Z,14.3
2023-01-08T09:18:24.004Z,15.9
2023-01-08T09:23:16.050Z,15.8
2023-01-08T09:28:21.050Z,16.4
2023-01-08T09:33:22.983Z,15.7
2023-01-08T09:38:28.269Z,18.1
2023-01-08T09:43:31.762Z,18
2023-01-08T09:48:34.522Z,18.5
2023-01-08T09:53:36.533Z,18.4
2023-01-08T09:58:39.829Z,17.7
2023-01-08T10:03:41.933Z,17.5
2023-01-08T10:13:47.240Z,16
2023-01-08T10:18:49.353Z,17.4
2023-01-08T10:23:51.489Z,16.9
2023-01-08T10:28:53.656Z,14.6
2023-01-08T10:33:55.883Z,16.3
2023-01-08T10:38:58.040Z,17
2023-01-08T10:44:00.120Z,19.4
2023-01-08T10:49:02.243Z,20.1
2023-01-08T10:54:04.383Z,20.3
2023-01-08T10:59:06.479Z,20
2023-01-08T11:04:09.279Z,19.1
2023-01-08T11:09:11.449Z,19
2023-01-08T11:14:13.642Z,15.7
2023-01-08T11:19:16.289Z,13.6
2023-01-08T11:24:19.049Z,12.3
2023-01-08T11:29:21.173Z,15.1
2023-01-08T11:34:23.300Z,17.2
2023-01-08T11:39:25.984Z,18.3
2023-01-08T11:44:28.163Z,18.2
2023-01-08T11:49:32.915Z,18.5
2023-01-08T11:54:35.060Z,18.4
2023-01-08T11:59:37.183Z,18.3
2023-01-08T12:04:39.211Z,18.8
2023-01-08T12:09:41.659Z,17.9
2023-01-08T12:14:43.807Z,18.7
2023-01-08T12:19:45.952Z,18.2
2023-01-08T12:24:47.916Z,17.5
2023-01-08T12:29:50.086Z,18.7
2023-01-08T12:34:53.303Z,16.4
2023-01-08T12:39:56.422Z,17.7
2023-01-08T12:45:07.508Z,16.8
2023-01-08T12:50:07.607Z,17.2
2023-01-08T12:55:12.470Z,17.3
2023-01-08T13:00:17.508Z,17.6
2023-01-08T13:05:21.356Z,14.4
2023-01-08T13:10:26.130Z,14.3
2023-01-08T13:15:35.012Z,13
2023-01-08T13:20:39.561Z,12
2023-01-08T13:25:45.992Z,11.9
2023-01-08T13:30:48.151Z,11.8
2023-01-08T13:36:01.226Z,11.5
2023-01-08T13:41:05.823Z,11.3
2023-01-08T13:46:15.838Z,11.3
2023-01-08T13:51:20.488Z,11.3
2023-01-08T13:56:25.845Z,11.2
2023-01-08T14:01:28.616Z,11.1
2023-01-08T14:06:31.035Z,11.1
2023-01-08T14:11:34.710Z,11.1
2023-01-08T14:16:38.372Z,11.1
2023-01-08T14:21:40.575Z,11
2023-01-08T14:26:43.626Z,10.8
2023-01-08T14:31:48.838Z,10.7
2023-01-08T14:36:51.105Z,10.6
2023-01-08T14:41:53.336Z,10.6
2023-01-08T14:46:55.469Z,10.5
2023-01-08T14:51:58.141Z,10.4
2023-01-08T14:57:02.978Z,10.3
2023-01-08T15:02:05.793Z,10.3
2023-01-08T15:07:11.385Z,10.2
2023-01-08T15:12:13.919Z,10.3
2023-01-08T15:17:16.837Z,10.2
2023-01-08T15:22:20.364Z,10.2
2023-01-08T15:27:22.450Z,10.2
2023-01-08T15:32:27.620Z,10.2
2023-01-08T15:37:31.930Z,10.2
2023-01-08T15:42:34.442Z,10.2
2023-01-08T15:47:36.926Z,10.3
2023-01-08T15:52:39.691Z,10.3
2023-01-08T15:57:42.723Z,10.3
2023-01-08T16:02:48.657Z,10.3
2023-01-08T16:07:51.398Z,10.3
2023-01-08T16:12:54.117Z,10.3
2023-01-08T16:17:56.474Z,10.2
2023-01-08T16:22:58.656Z,10.2
2023-01-08T16:28:00.771Z,10.2
2023-01-08T16:33:04.249Z,10.2
2023-01-08T16:38:06.580Z,10.1
2023-01-08T16:43:09.413Z,10.1
2023-01-08T16:48:11.856Z,10.1
2023-01-08T16:53:14.332Z,10
2023-01-08T16:58:19.830Z,9.9
2023-01-08T17:03:22.437Z,9.9
2023-01-08T17:08:24.557Z,9.8
2023-01-08T17:13:29.278Z,9.9
2023-01-08T17:18:31.652Z,9.9
2023-01-08T17:23:33.697Z,9.9
2023-01-08T17:28:35.847Z,9.9
2023-01-08T17:33:37.882Z,9.9
2023-01-08T17:38:40.064Z,9.9
2023-01-08T17:43:42.331Z,9.9
2023-01-08T17:48:44.812Z,10
2023-01-08T17:53:46.966Z,10
2023-01-08T17:58:49.015Z,10.1
2023-01-08T18:03:51.603Z,10.2
2023-01-08T18:08:53.775Z,10.2
2023-01-08T18:13:55.813Z,10.3
2023-01-08T18:18:58.042Z,10.4
2023-01-08T18:24:00.614Z,10.4
2023-01-08T18:29:02.835Z,10.5
2023-01-08T18:34:04.832Z,10.5
2023-01-08T18:39:06.977Z,10.5
2023-01-08T18:44:09.092Z,10.5
2023-01-08T18:49:11.069Z,10.5
2023-01-08T18:54:13.632Z,10.5
2023-01-08T18:59:15.655Z,10.5
2023-01-08T19:04:18.336Z,10.6
2023-01-08T19:09:24.205Z,10.6
2023-01-08T19:14:26.339Z,10.6
2023-01-08T19:19:28.618Z,10.6
2023-01-08T19:24:30.843Z,10.7
2023-01-08T19:29:32.921Z,10.7
2023-01-08T19:34:35.073Z,10.7
2023-01-08T19:39:37.144Z,10.7
2023-01-08T19:44:39.347Z,10.7
2023-01-08T19:49:41.402Z,10.7
2023-01-08T19:54:43.616Z,10.7
2023-01-08T19:59:46.037Z,10.7
2023-01-08T20:04:48.875Z,10.7
2023-01-08T20:09:51.332Z,10.7
2023-01-08T20:14:54.072Z,10.7
2023-01-08T20:19:56.750Z,10.7
2023-01-08T20:25:00.684Z,10.7
2023-01-08T20:30:03.369Z,10.8
2023-01-08T20:35:05.642Z,10.7
2023-01-08T20:40:07.786Z,10.8
2023-01-08T20:45:09.915Z,10.8
2023-01-08T20:50:21.710Z,10.7
2023-01-08T20:55:13.842Z,10.7
2023-01-08T21:00:16.097Z,10.8
2023-01-08T21:05:18.374Z,10.8
2023-01-08T21:10:20.743Z,10.8
2023-01-08T21:15:22.839Z,10.9
2023-01-08T21:20:25.816Z,10.9
2023-01-08T21:25:28.217Z,10.9
2023-01-08T21:30:30.463Z,10.9
2023-01-08T21:35:32.621Z,10.9
2023-01-08T21:40:34.656Z,10.9
2023-01-08T21:45:37.123Z,10.9
2023-01-08T21:50:39.527Z,10.8
2023-01-08T21:55:42.039Z,10.9
2023-01-08T22:00:44.363Z,10.8
2023-01-08T22:05:47.098Z,10.7
2023-01-08T22:10:49.393Z,10.7
2023-01-08T22:15:51.928Z,10.6
2023-01-08T22:20:54.452Z,10.6
2023-01-08T22:25:56.604Z,10.6
2023-01-08T22:30:58.801Z,10.5
2023-01-08T22:36:01.335Z,10.4
2023-01-08T22:41:06.599Z,10.4
2023-01-08T22:46:10.411Z,10.4
2023-01-08T22:51:12.524Z,10.4
2023-01-08T22:56:14.687Z,10.3
2023-01-08T23:01:17.822Z,10.2
2023-01-08T23:06:20.026Z,10.1
2023-01-08T23:11:22.750Z,10
2023-01-08T23:16:26.972Z,9.9
2023-01-08T23:21:29.363Z,9.8
2023-01-08T23:26:31.888Z,9.5
2023-01-08T23:31:34.411Z,9.4
2023-01-08T23:36:36.560Z,9.4
2023-01-08T23:41:38.672Z,9.3
2023-01-08T23:46:40.751Z,9.2
2023-01-08T23:51:42.948Z,9.1
2023-01-08T23:56:45.036Z,9.1
